createdAt,value
2019-01-15T00:01:57.096Z,68.36
2019-01-15T00:04:26.431Z,68.54
2019-01-15T00:06:55.729Z,68.17
2019-01-15T00:09:26.173Z,67.78
2019-01-15T00:11:55.553Z,67.46
2019-01-15T00:14:24.910Z,67.64
2019-01-15T00:16:54.271Z,67.41
2019-01-15T00:19:23.602Z,66.81
2019-01-15T00:21:52.977Z,66.47
2019-01-15T00:24:22.307Z,66.30
2019-01-15T00:26:51.668Z,65.32
2019-01-15T00:29:21.032Z,65.09
2019-01-15T00:31:50.432Z,65.29
2019-01-15T00:34:19.749Z,64.72
2019-01-15T00:36:49.063Z,64.37
2019-01-15T00:39:18.423Z,64.50
2019-01-15T00:41:47.894Z,64.42
2019-01-15T00:44:17.213Z,63.89
2019-01-15T00:46:46.546Z,63.52
2019-01-15T00:49:15.908Z,63.04
2019-01-15T00:51:45.291Z,62.95
2019-01-15T00:54:14.655Z,62.97
2019-01-15T00:56:44.022Z,62.69
2019-01-15T00:59:13.393Z,61.50
2019-01-15T01:01:42.753Z,61.21
2019-01-15T01:04:12.150Z,60.83
2019-01-15T01:06:41.509Z,60.92
2019-01-15T01:09:11.640Z,60.21
2019-01-15T01:11:40.958Z,59.46
2019-01-15T01:14:10.305Z,59.20
2019-01-15T01:16:39.627Z,59.24
2019-01-15T01:19:08.957Z,58.37
2019-01-15T01:21:38.330Z,58.12
2019-01-15T01:24:07.676Z,58.32
2019-01-15T01:26:37.036Z,57.70
2019-01-15T01:29:06.380Z,57.29
2019-01-15T01:31:35.702Z,56.76
2019-01-15T01:34:05.089Z,56.61
2019-01-15T01:36:34.419Z,56.20
2019-01-15T01:39:05.730Z,56.19
2019-01-15T01:41:35.079Z,56.08
2019-01-15T01:44:04.631Z,55.80
2019-01-15T01:46:33.967Z,55.81
2019-01-15T01:49:03.337Z,55.78
2019-01-15T01:51:32.698Z,55.39
2019-01-15T01:54:02.027Z,56.16
2019-01-15T01:56:31.367Z,56.03
2019-01-15T01:59:00.711Z,55.92
2019-01-15T02:01:30.062Z,55.77
2019-01-15T02:03:59.410Z,55.28
2019-01-15T02:06:28.759Z,55.75
2019-01-15T02:08:58.084Z,55.80
2019-01-15T02:11:27.436Z,56.09
2019-01-15T02:13:56.854Z,56.04
2019-01-15T02:16:26.157Z,56.39
2019-01-15T02:18:55.452Z,56.31
2019-01-15T02:21:24.805Z,56.46
2019-01-15T02:23:54.235Z,56.42
2019-01-15T02:26:23.565Z,56.64
2019-01-15T02:28:52.928Z,56.52
2019-01-15T02:31:22.311Z,56.93
2019-01-15T02:33:51.636Z,56.96
2019-01-15T02:36:21.007Z,56.87
2019-01-15T02:38:50.452Z,57.28
2019-01-15T02:41:19.805Z,57.75
2019-01-15T02:43:49.107Z,57.43
2019-01-15T02:46:18.413Z,57.15
2019-01-15T02:48:47.803Z,57.04
2019-01-15T02:51:17.182Z,57.16
2019-01-15T02:53:46.549Z,57.53
2019-01-15T02:56:15.915Z,57.20
2019-01-15T02:58:45.269Z,57.81
2019-01-15T03:01:14.637Z,57.83
2019-01-15T03:03:44.071Z,57.73
2019-01-15T03:06:13.434Z,57.43
2019-01-15T03:08:42.826Z,57.95
2019-01-15T03:11:12.136Z,57.59
2019-01-15T03:13:41.447Z,57.89
2019-01-15T03:16:10.775Z,57.71
2019-01-15T03:18:40.108Z,57.94
2019-01-15T03:21:09.443Z,58.06
2019-01-15T03:23:38.769Z,58.14
2019-01-15T03:26:08.130Z,57.77
2019-01-15T03:28:37.519Z,57.74
2019-01-15T03:31:06.920Z,57.99
2019-01-15T03:33:36.293Z,58.14
2019-01-15T03:36:05.613Z,58.15
2019-01-15T03:38:34.950Z,58.00
2019-01-15T03:41:04.267Z,57.25
2019-01-15T03:43:33.589Z,57.43
2019-01-15T03:46:04.376Z,57.71
2019-01-15T03:48:34.282Z,57.76
2019-01-15T03:51:03.942Z,57.89
2019-01-15T03:53:33.300Z,57.77
2019-01-15T03:56:04.810Z,57.73
2019-01-15T03:58:34.154Z,58.10
2019-01-15T04:01:03.485Z,58.27
2019-01-15T04:03:32.889Z,58.23
2019-01-15T04:06:02.225Z,58.32
2019-01-15T04:08:31.579Z,58.56
2019-01-15T04:11:00.931Z,58.53
2019-01-15T04:13:30.228Z,58.94
2019-01-15T04:15:59.549Z,59.21
2019-01-15T04:18:28.892Z,59.53
2019-01-15T04:20:58.249Z,59.87
2019-01-15T04:23:27.620Z,60.01
2019-01-15T04:25:56.939Z,60.35
2019-01-15T04:28:26.270Z,60.41
2019-01-15T04:30:55.714Z,60.79
2019-01-15T04:33:25.060Z,61.20
2019-01-15T04:35:54.429Z,61.39
2019-01-15T04:38:23.807Z,61.45
2019-01-15T04:40:53.151Z,61.63
2019-01-15T04:43:22.498Z,61.80
2019-01-15T04:45:51.813Z,61.95
2019-01-15T04:48:21.245Z,61.67
2019-01-15T04:50:50.750Z,61.77
2019-01-15T04:53:20.070Z,61.92
2019-01-15T04:55:49.408Z,62.05
2019-01-15T04:58:18.863Z,62.36
2019-01-15T05:00:48.172Z,62.72
2019-01-15T05:03:17.488Z,62.97
2019-01-15T05:05:46.826Z,63.14
2019-01-15T05:08:16.261Z,63.43
2019-01-15T05:10:45.630Z,63.69
2019-01-15T05:13:14.935Z,63.99
2019-01-15T05:15:44.249Z,64.23
2019-01-15T05:18:13.577Z,64.70
2019-01-15T05:20:42.887Z,65.01
2019-01-15T05:23:12.232Z,65.43
2019-01-15T05:25:41.559Z,65.50
2019-01-15T05:28:10.877Z,65.69
2019-01-15T05:30:40.285Z,65.90
2019-01-15T05:33:09.611Z,65.74
2019-01-15T05:35:38.938Z,65.99
2019-01-15T05:38:08.395Z,66.33
2019-01-15T05:40:37.762Z,66.82
2019-01-15T05:43:07.096Z,67.41
2019-01-15T05:45:38.099Z,68.19
2019-01-15T05:48:10.189Z,69.11
2019-01-15T05:50:45.521Z,70.52
2019-01-15T05:53:14.863Z,71.94
2019-01-15T05:55:44.172Z,74.09
2019-01-15T05:58:13.524Z,77.54
2019-01-15T06:00:43.051Z,81.26
2019-01-15T06:03:12.419Z,85.42
2019-01-15T06:05:44.231Z,87.52
2019-01-15T06:08:13.568Z,88.17
2019-01-15T06:10:42.901Z,86.68
2019-01-15T06:13:12.283Z,83.77
2019-01-15T06:15:41.650Z,82.79
2019-01-15T06:18:11.078Z,82.27
2019-01-15T06:20:40.421Z,81.01
2019-01-15T06:23:09.756Z,78.93
2019-01-15T06:25:39.133Z,77.97
2019-01-15T06:28:08.504Z,77.80
2019-01-15T06:30:37.924Z,77.84
2019-01-15T06:33:07.484Z,78.01
2019-01-15T06:35:36.831Z,78.19
2019-01-15T06:38:06.289Z,78.31
2019-01-15T06:40:35.636Z,78.21
2019-01-15T06:43:05.072Z,76.94
2019-01-15T06:45:34.399Z,76.46
2019-01-15T06:48:03.849Z,77.01
2019-01-15T06:50:33.187Z,77.46
2019-01-15T06:53:02.523Z,77.35
2019-01-15T06:55:31.953Z,77.75
2019-01-15T06:58:01.292Z,77.77
2019-01-15T07:00:30.805Z,77.92
2019-01-15T07:03:00.310Z,77.49
2019-01-15T07:05:29.764Z,76.55
2019-01-15T07:07:59.102Z,74.47
2019-01-15T07:10:31.267Z,72.10
2019-01-15T07:13:00.658Z,71.37
2019-01-15T07:15:30.045Z,70.74
2019-01-15T07:17:59.373Z,71.49
2019-01-15T07:20:28.822Z,71.66
2019-01-15T07:23:07.115Z,72.92
2019-01-15T07:25:36.652Z,74.85
2019-01-15T07:28:06.331Z,76.81
2019-01-15T07:30:38.748Z,79.42
2019-01-15T07:33:09.152Z,81.96
2019-01-15T07:35:38.593Z,83.85
2019-01-15T07:38:08.188Z,83.53
2019-01-15T07:40:37.830Z,81.20
2019-01-15T07:43:07.243Z,79.32
2019-01-15T07:45:36.706Z,77.59
2019-01-15T07:48:06.402Z,76.67
2019-01-15T07:50:35.805Z,75.62
2019-01-15T07:53:06.130Z,72.27
2019-01-15T07:55:35.499Z,72.27
2019-01-15T07:58:05.002Z,70.60
2019-01-15T08:00:34.383Z,70.60
2019-01-15T08:03:04.110Z,68.96
2019-01-15T08:05:33.491Z,68.37
2019-01-15T08:08:03.156Z,65.25
2019-01-15T08:10:32.716Z,65.60
2019-01-15T08:13:02.112Z,65.06
2019-01-15T08:15:31.568Z,64.26
2019-01-15T08:18:00.886Z,64.17
2019-01-15T08:20:31.431Z,63.99
2019-01-15T08:23:00.869Z,63.49
2019-01-15T08:25:30.234Z,63.40
2019-01-15T08:27:59.647Z,64.10
2019-01-15T08:30:31.784Z,63.69
2019-01-15T08:33:01.160Z,62.60
2019-01-15T08:35:30.552Z,61.65
2019-01-15T08:38:00.030Z,61.91
2019-01-15T08:40:29.434Z,60.79
2019-01-15T08:42:58.846Z,60.77
2019-01-15T08:45:28.184Z,61.59
2019-01-15T08:48:10.941Z,60.78
2019-01-15T08:50:40.499Z,60.55
2019-01-15T08:53:10.317Z,60.04
2019-01-15T08:55:39.649Z,59.78
2019-01-15T08:58:08.992Z,58.84
2019-01-15T09:00:38.336Z,58.73
2019-01-15T09:03:07.673Z,58.48
2019-01-15T09:05:37.443Z,58.34
2019-01-15T09:08:06.800Z,58.43
2019-01-15T09:10:36.158Z,57.16
2019-01-15T09:13:06.037Z,57.04
2019-01-15T09:15:35.460Z,57.37
2019-01-15T09:18:04.973Z,57.85
2019-01-15T09:20:34.389Z,57.57
2019-01-15T09:23:03.771Z,57.55
2019-01-15T09:25:33.142Z,57.94
2019-01-15T09:28:02.515Z,57.77
2019-01-15T09:30:31.897Z,56.68
2019-01-15T09:33:01.227Z,56.35
2019-01-15T09:35:30.569Z,56.55
2019-01-15T09:38:00.496Z,56.02
2019-01-15T09:40:30.006Z,55.86
2019-01-15T09:42:59.454Z,55.40
2019-01-15T09:45:28.840Z,55.35
2019-01-15T09:48:05.713Z,54.47
2019-01-15T09:50:35.220Z,54.09
2019-01-15T09:53:04.991Z,54.22
2019-01-15T09:55:35.397Z,54.57
2019-01-15T09:58:05.618Z,54.59
2019-01-15T10:00:35.042Z,54.13
2019-01-15T10:03:04.364Z,53.88
2019-01-15T10:05:33.696Z,54.11
2019-01-15T10:08:03.053Z,54.59
2019-01-15T10:10:32.380Z,54.57
2019-01-15T10:13:01.725Z,54.81
2019-01-15T10:15:31.053Z,53.86
2019-01-15T10:18:00.423Z,52.74
2019-01-15T10:20:29.751Z,52.33
2019-01-15T10:22:59.076Z,53.08
2019-01-15T10:25:29.720Z,53.93
2019-01-15T10:27:59.242Z,54.79
2019-01-15T10:31:21.511Z,54.65
2019-01-15T10:33:57.943Z,54.43
2019-01-15T10:36:25.485Z,53.95
2019-01-15T10:38:54.796Z,53.85
2019-01-15T10:41:24.128Z,54.00
2019-01-15T10:43:53.426Z,53.76
2019-01-15T10:46:23.161Z,53.35
2019-01-15T10:48:52.506Z,52.86
2019-01-15T10:51:21.829Z,52.36
2019-01-15T10:53:51.165Z,52.67
2019-01-15T10:56:20.499Z,52.26
2019-01-15T10:58:49.845Z,52.28
2019-01-15T11:01:19.191Z,51.68
2019-01-15T11:03:48.516Z,51.11
2019-01-15T11:06:17.911Z,52.89
2019-01-15T11:08:47.263Z,52.21
2019-01-15T11:11:16.595Z,52.83
2019-01-15T11:13:45.884Z,52.19
2019-01-15T11:16:15.168Z,52.39
2019-01-15T11:18:44.486Z,52.29
2019-01-15T11:21:14.720Z,52.13
2019-01-15T11:23:44.079Z,52.04
2019-01-15T11:26:13.444Z,51.15
2019-01-15T11:28:42.812Z,51.46
2019-01-15T11:31:12.111Z,51.98
2019-01-15T11:33:41.435Z,51.17
2019-01-15T11:36:10.781Z,51.00
2019-01-15T11:38:40.169Z,51.70
2019-01-15T11:41:09.910Z,51.36
2019-01-15T11:43:39.287Z,51.73
2019-01-15T11:46:08.624Z,52.19
2019-01-15T11:48:37.954Z,52.88
2019-01-15T11:51:07.274Z,51.93
2019-01-15T11:53:36.596Z,52.11
2019-01-15T11:56:05.934Z,51.90
2019-01-15T11:58:35.410Z,51.91
2019-01-15T12:01:19.437Z,52.90
2019-01-15T12:04:10.458Z,51.44
2019-01-15T12:06:54.610Z,51.76
2019-01-15T12:09:55.027Z,52.04
2019-01-15T12:12:58.365Z,52.55
2019-01-15T12:15:39.262Z,51.77
2019-01-15T12:18:27.529Z,51.68
2019-01-15T12:21:14.638Z,52.61
2019-01-15T12:24:02.895Z,52.78
2019-01-15T12:26:40.630Z,51.80
2019-01-15T12:29:38.305Z,52.65
2019-01-15T12:32:28.167Z,52.59
2019-01-15T12:35:28.808Z,53.12
2019-01-15T12:38:15.976Z,52.78
2019-01-15T12:41:07.412Z,52.56
2019-01-15T12:43:54.399Z,53.21
2019-01-15T12:46:41.547Z,53.88
2019-01-15T12:49:27.061Z,52.42
2019-01-15T12:52:15.349Z,52.85
2019-01-15T12:55:15.705Z,52.94
2019-01-15T12:58:02.928Z,53.67
2019-01-15T13:00:50.033Z,53.20
2019-01-15T13:03:37.132Z,53.74
2019-01-15T13:06:25.546Z,54.21
2019-01-15T13:09:08.957Z,54.33
2019-01-15T13:11:56.144Z,54.33
2019-01-15T13:14:53.732Z,54.07
2019-01-15T13:18:00.310Z,54.62
2019-01-15T13:20:47.170Z,54.04
2019-01-15T13:23:34.315Z,54.29
2019-01-15T13:26:21.733Z,54.33
2019-01-15T13:29:19.094Z,54.33
2019-01-15T13:32:07.372Z,54.13
2019-01-15T13:35:07.928Z,54.13
2019-01-15T13:37:54.832Z,54.25
2019-01-15T13:40:58.279Z,54.33
2019-01-15T13:43:45.210Z,54.47
2019-01-15T13:46:42.518Z,54.32
2019-01-15T13:49:43.236Z,54.24
2019-01-15T13:52:34.369Z,54.00
2019-01-15T13:55:28.091Z,54.30
2019-01-15T13:58:24.588Z,54.77
2019-01-15T14:01:08.854Z,53.93
2019-01-15T14:04:03.010Z,53.99
2019-01-15T14:07:06.946Z,54.26
2019-01-15T14:09:53.320Z,54.57
2019-01-15T14:12:44.634Z,54.68
2019-01-15T14:15:49.125Z,55.32
2019-01-15T14:18:36.089Z,56.33
2019-01-15T14:21:30.489Z,56.11
2019-01-15T14:24:24.645Z,56.12
2019-01-15T14:27:02.653Z,55.18
2019-01-15T14:29:49.670Z,55.97
2019-01-15T14:32:43.994Z,56.02
2019-01-15T14:35:33.220Z,55.76
2019-01-15T14:38:30.748Z,56.27
2019-01-15T14:41:19.040Z,56.61
2019-01-15T14:44:05.946Z,56.36
2019-01-15T14:46:54.246Z,56.87
2019-01-15T14:49:41.503Z,57.24
2019-01-15T14:52:32.840Z,57.09
2019-01-15T14:55:19.632Z,57.41
2019-01-15T14:58:14.041Z,58.19
2019-01-15T15:01:02.364Z,58.30
2019-01-15T15:03:53.727Z,58.66
2019-01-15T15:06:40.664Z,58.97
2019-01-15T15:09:37.068Z,59.25
2019-01-15T15:12:24.018Z,59.87
2019-01-15T15:15:12.271Z,60.16
2019-01-15T15:18:00.599Z,60.61
2019-01-15T15:20:54.347Z,61.05
2019-01-15T15:23:43.601Z,61.43
2019-01-15T15:26:30.574Z,61.19
2019-01-15T15:29:18.847Z,61.93
2019-01-15T15:32:10.382Z,61.87
2019-01-15T15:34:57.500Z,62.34
2019-01-15T15:37:43.439Z,62.43
2019-01-15T15:40:31.831Z,62.68
2019-01-15T15:43:29.525Z,63.01
2019-01-15T15:46:15.412Z,63.09
2019-01-15T15:49:02.583Z,63.14
2019-01-15T15:52:09.366Z,63.53
2019-01-15T15:54:57.782Z,63.84
2019-01-15T15:57:37.335Z,63.88
2019-01-15T16:00:42.115Z,63.98
2019-01-15T16:03:27.607Z,64.41
2019-01-15T16:06:15.365Z,64.67
2019-01-15T16:09:03.578Z,65.02
2019-01-15T16:11:50.610Z,64.89
2019-01-15T16:15:00.553Z,64.63
2019-01-15T16:17:47.521Z,64.52
2019-01-15T16:20:44.717Z,64.40
2019-01-15T16:23:31.877Z,64.49
2019-01-15T16:26:23.284Z,64.66
2019-01-15T16:29:30.151Z,64.26
2019-01-15T16:32:07.822Z,64.35
2019-01-15T16:35:08.139Z,64.09
2019-01-15T16:37:53.664Z,64.17
2019-01-15T16:40:50.835Z,64.08
2019-01-15T16:43:39.145Z,64.75
2019-01-15T16:46:39.725Z,64.87
2019-01-15T16:49:31.324Z,64.38
2019-01-15T16:52:22.561Z,64.96
2019-01-15T16:55:09.552Z,64.75
2019-01-15T16:57:56.171Z,64.84
2019-01-15T17:00:43.320Z,65.10
2019-01-15T17:03:34.623Z,64.64
2019-01-15T17:06:26.288Z,64.58
2019-01-15T17:09:18.179Z,64.60
2019-01-15T17:12:04.506Z,64.58
2019-01-15T17:14:52.819Z,64.39
2019-01-15T17:17:39.751Z,64.46
2019-01-15T17:20:27.926Z,64.52
2019-01-15T17:23:22.455Z,64.44
2019-01-15T17:26:06.260Z,64.70
2019-01-15T17:28:54.613Z,64.83
2019-01-15T17:31:58.246Z,65.17
2019-01-15T17:34:49.531Z,64.99
2019-01-15T17:37:55.979Z,65.06
2019-01-15T17:40:43.889Z,65.19
2019-01-15T17:43:50.793Z,65.31
2019-01-15T17:46:43.183Z,65.43
2019-01-15T17:49:40.662Z,65.33
2019-01-15T17:52:25.136Z,65.39
2019-01-15T17:55:03.668Z,65.30
2019-01-15T17:57:54.833Z,65.33
2019-01-15T18:00:46.122Z,65.31
2019-01-15T18:03:33.363Z,65.25
2019-01-15T18:06:24.679Z,65.33
2019-01-15T18:09:13.200Z,65.62
2019-01-15T18:12:01.465Z,65.99
2019-01-15T18:15:04.980Z,66.01
2019-01-15T18:17:53.567Z,65.83
2019-01-15T18:20:40.569Z,66.30
2019-01-15T18:23:20.497Z,66.36
2019-01-15T18:26:17.953Z,66.57
2019-01-15T18:29:09.352Z,66.60
2019-01-15T18:31:56.319Z,66.65
2019-01-15T18:34:44.611Z,66.74
2019-01-15T18:37:31.796Z,66.87
2019-01-15T18:40:22.270Z,66.97
2019-01-15T18:43:01.808Z,67.03
2019-01-15T18:45:46.874Z,67.25
2019-01-15T18:48:50.540Z,67.53
2019-01-15T18:51:44.736Z,67.81
2019-01-15T18:54:27.265Z,67.99
2019-01-15T18:57:21.800Z,67.94
2019-01-15T19:00:09.047Z,67.79
2019-01-15T19:02:46.754Z,67.72
2019-01-15T19:05:34.865Z,67.96
2019-01-15T19:08:26.251Z,68.28
2019-01-15T19:11:17.852Z,68.34
2019-01-15T19:14:24.402Z,68.77
2019-01-15T19:17:21.370Z,68.82
2019-01-15T19:20:07.998Z,68.91
2019-01-15T19:22:44.141Z,69.57
2019-01-15T19:25:38.980Z,69.57
2019-01-15T19:28:39.311Z,69.75
2019-01-15T19:31:26.282Z,69.76
2019-01-15T19:34:32.984Z,69.93
2019-01-15T19:37:23.043Z,69.73
2019-01-15T19:40:12.314Z,69.85
2019-01-15T19:43:19.435Z,70.23
2019-01-15T19:46:15.513Z,70.31
2019-01-15T19:49:02.440Z,70.57
2019-01-15T19:51:42.075Z,70.94
2019-01-15T19:54:26.221Z,71.29
2019-01-15T19:57:11.449Z,71.31
2019-01-15T19:59:59.740Z,71.63
2019-01-15T20:02:51.114Z,71.59
2019-01-15T20:05:39.772Z,71.64
2019-01-15T20:08:26.741Z,71.65
2019-01-15T20:11:13.418Z,71.78
2019-01-15T20:14:00.657Z,71.90
2019-01-15T20:16:54.753Z,72.51
2019-01-15T20:19:34.193Z,72.86
2019-01-15T20:22:27.188Z,72.87
2019-01-15T20:25:11.823Z,72.94
2019-01-15T20:27:54.546Z,72.93
2019-01-15T20:30:41.752Z,72.71
2019-01-15T20:33:28.910Z,72.75
2019-01-15T20:36:06.672Z,72.74
2019-01-15T20:39:00.935Z,72.63
2019-01-15T20:41:47.867Z,72.55
2019-01-15T20:44:51.456Z,72.56
2019-01-15T20:47:45.247Z,72.66
2019-01-15T20:50:36.931Z,73.16
2019-01-15T20:53:24.037Z,72.95
2019-01-15T20:56:12.460Z,73.03
2019-01-15T20:58:59.414Z,73.27
2019-01-15T21:01:38.173Z,73.35
2019-01-15T21:04:38.635Z,73.92
2019-01-15T21:07:26.953Z,74.03
2019-01-15T21:10:15.500Z,74.41
2019-01-15T21:13:02.446Z,74.68
2019-01-15T21:16:00.132Z,74.84
2019-01-15T21:18:51.450Z,74.92
2019-01-15T21:21:44.821Z,74.67
2019-01-15T21:24:32.160Z,74.64
2019-01-15T21:27:23.368Z,74.25
2019-01-15T21:30:10.623Z,74.21
2019-01-15T21:32:58.932Z,73.88
2019-01-15T21:35:53.325Z,73.81
2019-01-15T21:38:53.778Z,73.71
2019-01-15T21:42:00.470Z,73.61
2019-01-15T21:44:48.773Z,73.33
2019-01-15T21:47:40.270Z,73.32
2019-01-15T21:50:31.748Z,73.00
2019-01-15T21:53:11.414Z,72.74
2019-01-15T21:56:02.759Z,72.45
2019-01-15T21:58:41.340Z,72.15
2019-01-15T22:01:39.151Z,71.97
2019-01-15T22:04:30.210Z,71.82
2019-01-15T22:07:18.458Z,71.83
2019-01-15T22:10:17.296Z,71.32
2019-01-15T22:13:07.811Z,71.32
2019-01-15T22:15:57.492Z,71.09
2019-01-15T22:19:01.108Z,70.80
2019-01-15T22:21:42.460Z,70.48
2019-01-15T22:24:30.219Z,70.45
2019-01-15T22:27:14.341Z,70.27
2019-01-15T22:30:05.463Z,70.19
2019-01-15T22:32:56.904Z,70.22
2019-01-15T22:35:44.236Z,70.27
2019-01-15T22:38:28.506Z,70.36
2019-01-15T22:41:20.643Z,70.91
2019-01-15T22:44:23.965Z,71.01
2019-01-15T22:47:18.353Z,71.30
2019-01-15T22:50:06.633Z,71.10
2019-01-15T22:52:46.476Z,71.24
2019-01-15T22:55:33.567Z,71.47
2019-01-15T22:58:20.762Z,71.68
2019-01-15T23:01:08.075Z,71.66
2019-01-15T23:04:08.664Z,71.39
2019-01-15T23:06:55.641Z,71.33
2019-01-15T23:09:59.313Z,71.14
2019-01-15T23:12:56.579Z,70.96
2019-01-15T23:15:47.905Z,70.94
2019-01-15T23:18:35.109Z,71.13
2019-01-15T23:21:39.052Z,71.07
2019-01-15T23:24:26.131Z,71.76
2019-01-15T23:27:13.546Z,71.62
2019-01-15T23:29:52.066Z,71.70
2019-01-15T23:32:40.327Z,71.85
2019-01-15T23:35:32.121Z,71.92
2019-01-15T23:38:29.307Z,71.95
2019-01-15T23:41:30.025Z,72.25
2019-01-15T23:44:27.352Z,72.66
2019-01-15T23:47:21.762Z,72.94
2019-01-15T23:50:00.816Z,73.12
2019-01-15T23:52:58.430Z,73.31
2019-01-15T23:55:58.966Z,73.58
2019-01-15T23:59:02.697Z,73.71
